createdAt,value
2022-12-02T00:01:17.019Z,4.26
2022-12-02T00:03:46.397Z,4.11
2022-12-02T00:06:17.704Z,4.07
2022-12-02T00:08:46.032Z,3.97
2022-12-02T00:11:27.740Z,3.97
2022-12-02T00:13:58.333Z,3.69
2022-12-02T00:16:27.593Z,3.60
2022-12-02T00:18:56.909Z,3.63
2022-12-02T00:21:26.150Z,3.60
2022-12-02T00:23:54.200Z,3.56
2022-12-02T00:26:22.281Z,3.48
2022-12-02T00:28:50.262Z,3.54
2022-12-02T00:31:18.912Z,3.65
2022-12-02T00:33:46.819Z,3.67
2022-12-02T00:36:15.131Z,3.73
2022-12-02T00:38:44.606Z,3.64
2022-12-02T00:41:12.510Z,3.76
2022-12-02T00:43:57.854Z,3.80
2022-12-02T00:46:35.155Z,3.77
2022-12-02T00:49:06.797Z,3.69
2022-12-02T00:51:35.576Z,3.64
2022-12-02T00:54:05.000Z,3.63
2022-12-02T00:56:34.292Z,3.66
2022-12-02T00:59:02.827Z,3.69
2022-12-02T01:01:30.976Z,3.78
2022-12-02T01:03:59.767Z,3.76
2022-12-02T01:06:27.642Z,3.65
2022-12-02T01:08:55.533Z,3.65
2022-12-02T01:11:24.930Z,3.84
2022-12-02T01:13:53.999Z,3.86
2022-12-02T01:16:22.078Z,4.01
2022-12-02T01:18:50.170Z,4.08
2022-12-02T01:21:18.178Z,4.28
2022-12-02T01:23:46.025Z,4.02
2022-12-02T01:26:14.042Z,3.98
2022-12-02T01:28:44.317Z,4.06
2022-12-02T01:31:12.388Z,4.10
2022-12-02T01:33:40.743Z,4.17
2022-12-02T01:36:09.532Z,4.21
2022-12-02T01:38:37.639Z,3.99
2022-12-02T01:41:07.177Z,3.90
2022-12-02T01:43:35.523Z,3.99
2022-12-02T01:46:05.223Z,4.06
2022-12-02T01:48:33.282Z,3.93
2022-12-02T01:51:01.385Z,3.85
2022-12-02T01:53:29.762Z,3.91
2022-12-02T01:55:58.062Z,3.94
2022-12-02T01:58:28.639Z,3.98
2022-12-02T02:00:57.190Z,3.99
2022-12-02T02:03:26.475Z,3.94
2022-12-02T02:05:54.647Z,3.95
2022-12-02T02:08:22.959Z,3.75
2022-12-02T02:10:51.046Z,3.86
2022-12-02T02:13:19.423Z,3.93
2022-12-02T02:15:47.778Z,3.95
2022-12-02T02:18:17.712Z,3.86
2022-12-02T02:20:47.035Z,3.70
2022-12-02T02:23:26.897Z,3.88
2022-12-02T02:25:57.635Z,4.06
2022-12-02T02:28:27.404Z,3.97
2022-12-02T02:30:58.394Z,4.03
2022-12-02T02:33:30.112Z,3.95
2022-12-02T02:35:58.378Z,3.96
2022-12-02T02:38:29.666Z,4.08
2022-12-02T02:40:58.634Z,4.05
2022-12-02T02:43:28.994Z,4.08
2022-12-02T02:45:58.305Z,4.09
2022-12-02T02:48:27.443Z,4.12
2022-12-02T02:50:56.698Z,3.98
2022-12-02T02:53:28.987Z,4.15
2022-12-02T02:55:57.121Z,4.17
2022-12-02T02:58:26.802Z,4.20
2022-12-02T03:00:58.941Z,4.19
2022-12-02T03:03:31.286Z,4.20
2022-12-02T03:06:01.236Z,4.00
2022-12-02T03:08:32.502Z,3.90
2022-12-02T03:11:02.864Z,3.93
2022-12-02T03:13:32.767Z,4.00
2022-12-02T03:16:02.243Z,4.08
2022-12-02T03:18:30.518Z,3.91
2022-12-02T03:20:59.143Z,3.87
2022-12-02T03:23:27.732Z,3.87
2022-12-02T03:25:58.156Z,3.89
2022-12-02T03:28:27.780Z,3.90
2022-12-02T03:30:56.390Z,4.00
2022-12-02T03:33:24.560Z,3.99
2022-12-02T03:35:52.696Z,3.95
2022-12-02T03:38:20.563Z,3.91
2022-12-02T03:40:49.397Z,3.80
2022-12-02T03:43:18.609Z,3.80
2022-12-02T03:45:46.901Z,3.68
2022-12-02T03:48:17.338Z,3.82
2022-12-02T03:50:45.189Z,3.73
2022-12-02T03:53:13.183Z,3.73
2022-12-02T03:55:41.323Z,3.79
2022-12-02T03:58:11.042Z,3.71
2022-12-02T04:00:40.540Z,3.79
2022-12-02T04:03:08.720Z,3.73
2022-12-02T04:05:36.627Z,3.71
2022-12-02T04:08:04.526Z,3.72
2022-12-02T04:10:32.659Z,3.72
2022-12-02T04:13:00.476Z,3.85
2022-12-02T04:15:28.472Z,3.86
2022-12-02T04:17:57.800Z,3.85
2022-12-02T04:20:25.592Z,3.96
2022-12-02T04:22:53.466Z,3.85
2022-12-02T04:25:21.539Z,3.78
2022-12-02T04:27:49.456Z,3.81
2022-12-02T04:30:17.584Z,3.79
2022-12-02T04:32:45.576Z,3.72
2022-12-02T04:35:15.025Z,3.77
2022-12-02T04:37:42.903Z,3.60
2022-12-02T04:40:11.792Z,3.70
2022-12-02T04:42:39.616Z,3.71
2022-12-02T04:45:08.338Z,3.61
2022-12-02T04:47:36.255Z,3.70
2022-12-02T04:50:04.456Z,3.68
2022-12-02T04:52:33.653Z,3.77
2022-12-02T04:55:01.630Z,3.80
2022-12-02T04:57:31.638Z,3.78
2022-12-02T04:59:59.668Z,3.87
2022-12-02T05:02:27.714Z,3.93
2022-12-02T05:04:55.849Z,3.78
2022-12-02T05:07:23.925Z,3.69
2022-12-02T05:09:53.270Z,3.82
2022-12-02T05:12:22.481Z,3.88
2022-12-02T05:14:50.591Z,3.82
2022-12-02T05:17:18.692Z,3.79
2022-12-02T05:19:46.585Z,3.83
2022-12-02T05:22:14.440Z,4.00
2022-12-02T05:24:42.457Z,4.07
2022-12-02T05:27:12.475Z,4.04
2022-12-02T05:29:40.272Z,4.01
2022-12-02T05:32:08.307Z,4.05
2022-12-02T05:34:36.126Z,3.95
2022-12-02T05:37:04.311Z,3.92
2022-12-02T05:39:32.317Z,3.88
2022-12-02T05:42:03.408Z,3.85
2022-12-02T05:44:39.593Z,3.77
2022-12-02T05:47:12.985Z,3.89
2022-12-02T05:49:42.196Z,3.97
2022-12-02T05:52:21.900Z,3.89
2022-12-02T05:54:50.391Z,3.90
2022-12-02T05:57:25.983Z,3.77
2022-12-02T06:00:14.442Z,3.68
2022-12-02T06:02:46.328Z,3.82
2022-12-02T06:05:19.745Z,3.85
2022-12-02T06:07:49.567Z,3.90
2022-12-02T06:10:26.828Z,3.96
2022-12-02T06:12:56.808Z,3.78
2022-12-02T06:15:26.433Z,3.59
2022-12-02T06:17:54.380Z,3.67
2022-12-02T06:20:29.913Z,3.76
2022-12-02T06:22:58.987Z,3.72
2022-12-02T06:25:29.097Z,3.72
2022-12-02T06:28:07.377Z,3.79
2022-12-02T06:30:40.435Z,3.67
2022-12-02T06:33:22.352Z,3.64
2022-12-02T06:35:50.972Z,3.65
2022-12-02T06:38:28.269Z,3.75
2022-12-02T06:40:56.426Z,3.66
2022-12-02T06:43:27.344Z,3.70
2022-12-02T06:45:57.120Z,3.76
2022-12-02T06:48:29.999Z,3.84
2022-12-02T06:51:00.708Z,3.92
2022-12-02T06:53:35.056Z,3.96
2022-12-02T06:56:07.222Z,4.00
2022-12-02T06:58:40.711Z,3.92
2022-12-02T07:01:35.210Z,3.93
2022-12-02T07:04:28.294Z,4.07
2022-12-02T07:06:59.688Z,4.01
2022-12-02T07:09:36.402Z,3.95
2022-12-02T07:12:05.228Z,3.91
2022-12-02T07:14:44.432Z,3.88
2022-12-02T07:17:23.013Z,3.70
2022-12-02T07:19:58.135Z,3.63
2022-12-02T07:22:31.780Z,3.68
2022-12-02T07:25:21.066Z,3.84
2022-12-02T07:27:51.839Z,3.87
2022-12-02T07:30:26.631Z,3.84
2022-12-02T07:32:55.961Z,3.75
2022-12-02T07:35:24.091Z,3.78
2022-12-02T07:37:52.536Z,3.87
2022-12-02T07:40:21.451Z,4.04
2022-12-02T07:42:49.515Z,4.10
2022-12-02T07:45:20.291Z,4.12
2022-12-02T07:47:48.131Z,3.99
2022-12-02T07:50:17.970Z,4.04
2022-12-02T07:52:45.814Z,4.02
2022-12-02T07:55:13.719Z,4.09
2022-12-02T07:57:41.508Z,4.11
2022-12-02T08:00:10.735Z,4.23
2022-12-02T08:02:38.835Z,4.32
2022-12-02T08:05:07.669Z,4.24
2022-12-02T08:07:36.960Z,4.33
2022-12-02T08:10:05.466Z,4.08
2022-12-02T08:12:33.735Z,4.22
2022-12-02T08:15:01.591Z,4.16
2022-12-02T08:17:31.881Z,4.13
2022-12-02T08:19:59.723Z,4.19
2022-12-02T08:22:27.515Z,4.34
2022-12-02T08:24:56.947Z,4.48
2022-12-02T08:27:25.085Z,4.45
2022-12-02T08:29:53.358Z,4.44
2022-12-02T08:32:21.538Z,4.53
2022-12-02T08:34:49.648Z,4.52
2022-12-02T08:37:18.027Z,4.36
2022-12-02T08:39:45.872Z,4.24
2022-12-02T08:42:15.060Z,4.34
2022-12-02T08:44:42.916Z,4.43
2022-12-02T08:47:11.267Z,4.37
2022-12-02T08:49:39.481Z,4.45
2022-12-02T08:52:07.341Z,4.56
2022-12-02T08:54:35.267Z,4.55
2022-12-02T08:57:03.190Z,4.54
2022-12-02T08:59:33.052Z,4.46
2022-12-02T09:02:00.975Z,4.45
2022-12-02T09:04:28.859Z,4.61
2022-12-02T09:06:56.741Z,4.47
2022-12-02T09:09:24.612Z,4.44
2022-12-02T09:11:52.457Z,4.34
2022-12-02T09:14:20.260Z,4.46
2022-12-02T09:16:50.532Z,4.61
2022-12-02T09:19:18.404Z,4.46
2022-12-02T09:21:46.305Z,4.42
2022-12-02T09:24:14.258Z,4.47
2022-12-02T09:26:42.064Z,4.47
2022-12-02T09:29:09.902Z,4.48
2022-12-02T09:31:37.892Z,4.52
2022-12-02T09:34:07.307Z,4.64
2022-12-02T09:36:35.182Z,4.64
2022-12-02T09:39:03.361Z,4.61
2022-12-02T09:41:31.320Z,4.62
2022-12-02T09:43:59.262Z,4.58
2022-12-02T09:46:27.517Z,4.53
2022-12-02T09:48:55.445Z,4.65
2022-12-02T09:51:24.916Z,4.65
2022-12-02T09:53:53.137Z,4.58
2022-12-02T09:56:22.691Z,4.63
2022-12-02T09:58:52.971Z,4.61
2022-12-02T10:01:21.044Z,4.71
2022-12-02T10:03:51.835Z,4.81
2022-12-02T10:06:23.325Z,4.87
2022-12-02T10:08:53.653Z,4.82
2022-12-02T10:11:24.760Z,4.78
2022-12-02T10:13:52.743Z,4.92
2022-12-02T10:16:20.716Z,4.93
2022-12-02T10:18:49.271Z,4.70
2022-12-02T10:21:17.121Z,4.62
2022-12-02T10:24:01.066Z,4.81
2022-12-02T10:26:31.448Z,4.87
2022-12-02T10:29:08.230Z,4.81
2022-12-02T10:31:36.451Z,4.76
2022-12-02T10:34:07.244Z,4.60
2022-12-02T10:36:37.135Z,4.68
2022-12-02T10:39:22.853Z,4.73
2022-12-02T10:41:51.751Z,4.74
2022-12-02T10:44:22.081Z,4.80
2022-12-02T10:46:51.355Z,4.79
2022-12-02T10:49:30.840Z,4.92
2022-12-02T10:52:02.660Z,4.90
2022-12-02T10:54:41.199Z,4.88
2022-12-02T10:57:15.405Z,5.04
2022-12-02T10:59:43.472Z,4.95
2022-12-02T11:02:22.206Z,5.14
2022-12-02T11:04:50.753Z,5.07
2022-12-02T11:07:27.378Z,4.98
2022-12-02T11:09:58.494Z,5.00
2022-12-02T11:12:38.452Z,4.86
2022-12-02T11:15:34.648Z,4.87
2022-12-02T11:18:03.639Z,4.93
2022-12-02T11:20:38.365Z,4.96
2022-12-02T11:23:17.867Z,5.04
2022-12-02T11:26:01.877Z,4.80
2022-12-02T11:29:04.357Z,4.85
2022-12-02T11:31:32.322Z,4.65
2022-12-02T11:34:07.048Z,4.74
2022-12-02T11:36:38.042Z,4.79
2022-12-02T11:39:08.237Z,4.73
2022-12-02T11:42:24.311Z,4.92
2022-12-02T11:44:53.253Z,4.81
2022-12-02T11:47:27.339Z,4.96
2022-12-02T11:49:56.269Z,4.81
2022-12-02T11:52:26.238Z,4.94
2022-12-02T11:55:06.147Z,4.96
2022-12-02T11:57:46.956Z,5.13
2022-12-02T12:00:22.633Z,5.05
2022-12-02T12:03:09.291Z,5.07
2022-12-02T12:05:37.773Z,5.14
2022-12-02T12:08:06.171Z,5.07
2022-12-02T12:10:36.224Z,4.96
2022-12-02T12:13:22.652Z,4.97
2022-12-02T12:15:53.163Z,5.13
2022-12-02T12:18:44.047Z,4.97
2022-12-02T12:21:13.203Z,4.95
2022-12-02T12:23:44.891Z,5.00
2022-12-02T12:26:31.364Z,5.06
2022-12-02T12:29:06.522Z,5.04
2022-12-02T12:31:38.736Z,4.97
2022-12-02T12:34:09.034Z,4.97
2022-12-02T12:36:37.479Z,4.90
2022-12-02T12:39:09.484Z,4.92
2022-12-02T12:44:30.551Z,4.91
2022-12-02T12:46:59.947Z,5.04
2022-12-02T12:49:28.487Z,5.02
2022-12-02T12:51:56.627Z,4.97
2022-12-02T12:54:24.460Z,5.02
2022-12-02T12:56:52.370Z,5.01
2022-12-02T12:59:20.247Z,4.91
2022-12-02T13:01:49.588Z,4.93
2022-12-02T13:04:17.948Z,4.78
2022-12-02T13:06:47.156Z,4.89
2022-12-02T13:09:16.415Z,4.91
2022-12-02T13:11:44.658Z,5.03
2022-12-02T13:14:12.494Z,5.04
2022-12-02T13:16:40.497Z,4.94
2022-12-02T13:19:09.822Z,4.98
2022-12-02T13:21:38.293Z,5.01
2022-12-02T13:24:06.610Z,5.00
2022-12-02T13:26:34.608Z,4.85
2022-12-02T13:29:02.541Z,4.87
2022-12-02T13:31:31.919Z,4.92
2022-12-02T13:34:00.027Z,4.94
2022-12-02T13:36:29.394Z,4.90
2022-12-02T13:39:05.956Z,4.94
2022-12-02T13:41:37.215Z,4.98
2022-12-02T13:44:05.600Z,4.94
2022-12-02T13:46:33.767Z,4.91
2022-12-02T13:49:06.061Z,4.85
2022-12-02T13:51:36.566Z,4.80
2022-12-02T13:54:04.744Z,4.79
2022-12-02T13:56:32.656Z,4.81
2022-12-02T13:59:00.809Z,4.82
2022-12-02T14:01:30.105Z,4.90
2022-12-02T14:03:58.330Z,5.03
2022-12-02T14:06:26.481Z,5.05
2022-12-02T14:08:55.859Z,5.02
2022-12-02T14:11:23.973Z,5.07
2022-12-02T14:13:51.795Z,5.04
2022-12-02T14:16:20.017Z,5.05
2022-12-02T14:18:52.372Z,4.86
2022-12-02T14:21:23.525Z,4.89
2022-12-02T14:23:51.494Z,4.97
2022-12-02T14:26:20.927Z,5.06
2022-12-02T14:28:49.005Z,4.95
2022-12-02T14:31:25.650Z,5.07
2022-12-02T14:34:11.949Z,5.05
2022-12-02T14:36:41.251Z,5.00
2022-12-02T14:39:09.443Z,5.06
2022-12-02T14:41:38.687Z,5.15
2022-12-02T14:44:06.789Z,5.09
2022-12-02T14:46:34.887Z,4.95
2022-12-02T14:49:37.311Z,4.91
2022-12-02T14:51:51.200Z,4.80
2022-12-02T14:54:19.367Z,4.87
2022-12-02T14:56:48.587Z,4.71
2022-12-02T14:59:16.995Z,4.70
2022-12-02T15:01:44.944Z,4.81
2022-12-02T15:04:13.104Z,4.85
2022-12-02T15:06:41.058Z,4.95
2022-12-02T15:09:08.941Z,5.04
2022-12-02T15:11:36.870Z,5.01
2022-12-02T15:14:06.249Z,4.88
2022-12-02T15:16:35.396Z,4.83
2022-12-02T15:19:03.526Z,4.81
2022-12-02T15:21:31.457Z,4.92
2022-12-02T15:23:59.327Z,4.85
2022-12-02T15:26:27.158Z,5.04
2022-12-02T15:28:56.501Z,4.97
2022-12-02T15:31:25.963Z,5.00
2022-12-02T15:33:53.852Z,4.94
2022-12-02T15:36:22.140Z,4.96
2022-12-02T15:38:50.470Z,4.95
2022-12-02T15:41:18.393Z,4.91
2022-12-02T15:43:52.951Z,4.90
2022-12-02T15:46:22.520Z,5.05
2022-12-02T15:48:52.496Z,5.07
2022-12-02T15:51:21.135Z,5.02
2022-12-02T15:53:49.523Z,4.94
2022-12-02T15:56:17.771Z,4.86
2022-12-02T15:58:47.194Z,4.73
2022-12-02T16:01:15.261Z,4.86
2022-12-02T16:03:43.643Z,4.96
2022-12-02T16:06:13.019Z,4.99
2022-12-02T16:08:40.991Z,5.00
2022-12-02T16:11:10.013Z,5.01
2022-12-02T16:13:39.120Z,5.11
2022-12-02T16:16:07.570Z,5.02
2022-12-02T16:18:35.784Z,5.17
2022-12-02T16:21:03.835Z,5.22
2022-12-02T16:23:34.312Z,5.27
2022-12-02T16:26:02.265Z,5.23
2022-12-02T16:28:30.115Z,5.31
2022-12-02T16:30:58.121Z,5.36
2022-12-02T16:33:26.090Z,5.38
2022-12-02T16:35:53.958Z,5.37
2022-12-02T16:38:21.840Z,5.38
2022-12-02T16:40:51.458Z,5.25
2022-12-02T16:43:19.343Z,5.28
2022-12-02T16:45:47.281Z,5.22
2022-12-02T16:48:15.251Z,5.22
2022-12-02T16:50:43.117Z,5.25
2022-12-02T16:53:11.069Z,5.34
2022-12-02T16:55:39.760Z,5.37
2022-12-02T16:58:08.915Z,5.36
2022-12-02T17:00:36.940Z,5.32
2022-12-02T17:03:05.063Z,5.31
2022-12-02T17:05:32.928Z,5.23
2022-12-02T17:08:01.084Z,5.29
2022-12-02T17:10:31.789Z,5.41
2022-12-02T17:12:59.930Z,5.42
2022-12-02T17:15:30.036Z,5.46
2022-12-02T17:17:58.087Z,5.47
2022-12-02T17:20:31.930Z,5.48
2022-12-02T17:22:59.771Z,5.61
2022-12-02T17:25:27.618Z,5.67
2022-12-02T17:27:56.016Z,5.69
2022-12-02T17:30:24.251Z,5.64
2022-12-02T17:32:57.009Z,5.65
2022-12-02T17:35:25.404Z,5.77
2022-12-02T17:37:53.321Z,5.86
2022-12-02T17:40:21.224Z,5.83
2022-12-02T17:42:49.172Z,5.78
2022-12-02T17:45:17.232Z,5.79
2022-12-02T17:47:45.009Z,5.73
2022-12-02T17:50:16.966Z,5.81
2022-12-02T17:52:45.304Z,5.77
2022-12-02T17:55:14.509Z,5.78
2022-12-02T17:57:43.136Z,5.73
2022-12-02T18:00:13.445Z,5.63
2022-12-02T18:02:41.560Z,5.61
2022-12-02T18:05:10.391Z,5.63
2022-12-02T18:07:39.739Z,5.62
2022-12-02T18:10:08.493Z,5.64
2022-12-02T18:12:36.451Z,5.51
2022-12-02T18:15:04.758Z,5.56
2022-12-02T18:17:32.742Z,5.44
2022-12-02T18:20:00.665Z,5.37
2022-12-02T18:22:28.584Z,5.32
2022-12-02T18:24:59.609Z,5.32
2022-12-02T18:27:28.449Z,5.17
2022-12-02T18:29:56.613Z,5.20
2022-12-02T18:32:24.492Z,5.31
2022-12-02T18:34:52.672Z,5.34
2022-12-02T18:37:20.724Z,5.29
2022-12-02T18:39:48.556Z,5.42
2022-12-02T18:42:17.799Z,5.51
2022-12-02T18:44:45.661Z,5.56
2022-12-02T18:47:13.958Z,5.53
2022-12-02T18:49:42.958Z,5.54
2022-12-02T18:52:11.542Z,5.25
2022-12-02T18:54:39.548Z,5.31
2022-12-02T18:57:07.557Z,5.41
2022-12-02T18:59:37.805Z,5.59
2022-12-02T19:02:05.949Z,5.54
2022-12-02T19:04:36.887Z,5.55
2022-12-02T19:07:04.748Z,5.50
2022-12-02T19:09:33.189Z,5.56
2022-12-02T19:12:07.366Z,5.57
2022-12-02T19:14:36.832Z,5.52
2022-12-02T19:17:04.974Z,5.52
2022-12-02T19:19:33.023Z,5.27
2022-12-02T19:22:01.044Z,5.41
2022-12-02T19:24:28.927Z,5.40
2022-12-02T19:26:56.929Z,5.43
2022-12-02T19:29:24.772Z,5.43
2022-12-02T19:31:55.416Z,5.44
2022-12-02T19:34:23.438Z,5.55
2022-12-02T19:36:51.948Z,5.54
2022-12-02T19:39:19.857Z,5.49
2022-12-02T19:41:48.083Z,5.46
2022-12-02T19:44:16.109Z,5.47
2022-12-02T19:46:44.426Z,5.54
2022-12-02T19:49:14.418Z,5.52
2022-12-02T19:51:42.400Z,5.57
2022-12-02T19:54:10.563Z,5.53
2022-12-02T19:56:38.520Z,5.54
2022-12-02T19:59:07.407Z,5.53
2022-12-02T20:01:39.426Z,5.49
2022-12-02T20:04:33.229Z,5.57
2022-12-02T20:06:57.158Z,5.56
2022-12-02T20:09:27.989Z,5.55
2022-12-02T20:11:55.878Z,5.55
2022-12-02T20:14:23.854Z,5.59
2022-12-02T20:16:51.751Z,5.68
2022-12-02T20:19:19.554Z,5.70
2022-12-02T20:21:47.516Z,5.68
2022-12-02T20:24:17.013Z,5.70
2022-12-02T20:26:45.420Z,5.69
2022-12-02T20:29:14.516Z,5.68
2022-12-02T20:31:42.699Z,5.68
2022-12-02T20:34:10.687Z,5.65
2022-12-02T20:36:38.611Z,5.63
2022-12-02T20:39:06.808Z,5.67
2022-12-02T20:41:36.228Z,5.62
2022-12-02T20:44:04.358Z,5.57
2022-12-02T20:46:32.376Z,5.60
2022-12-02T20:49:00.372Z,5.72
2022-12-02T20:51:28.324Z,5.63
2022-12-02T20:53:56.158Z,5.60
2022-12-02T20:56:24.062Z,5.53
2022-12-02T20:58:53.507Z,5.60
2022-12-02T21:01:21.731Z,5.60
2022-12-02T21:03:49.687Z,5.71
2022-12-02T21:06:17.849Z,5.61
2022-12-02T21:08:45.792Z,5.78
2022-12-02T21:11:13.768Z,5.71
2022-12-02T21:13:44.883Z,5.77
2022-12-02T21:16:14.276Z,5.82
2022-12-02T21:18:42.264Z,5.74
2022-12-02T21:21:10.174Z,5.74
2022-12-02T21:23:38.070Z,5.78
2022-12-02T21:26:06.327Z,5.77
2022-12-02T21:28:34.250Z,5.71
2022-12-02T21:31:04.949Z,5.66
2022-12-02T21:33:34.282Z,5.71
2022-12-02T21:36:02.125Z,5.77
2022-12-02T21:38:30.779Z,5.79
2022-12-02T21:40:58.752Z,5.88
2022-12-02T21:43:26.820Z,5.86
2022-12-02T21:45:55.258Z,5.80
2022-12-02T21:48:23.332Z,5.75
2022-12-02T21:50:54.190Z,5.79
2022-12-02T21:53:24.952Z,5.80
2022-12-02T21:55:53.020Z,5.71
2022-12-02T21:58:20.892Z,5.67
2022-12-02T22:01:10.974Z,5.55
2022-12-02T22:03:39.114Z,5.60
2022-12-02T22:06:09.590Z,5.62
2022-12-02T22:08:37.536Z,5.45
2022-12-02T22:11:05.445Z,5.49
2022-12-02T22:13:33.983Z,5.48
2022-12-02T22:16:01.933Z,5.47
2022-12-02T22:18:29.888Z,5.55
2022-12-02T22:21:03.369Z,5.57
2022-12-02T22:23:32.742Z,5.46
2022-12-02T22:26:00.702Z,5.64
2022-12-02T22:28:28.741Z,5.52
2022-12-02T22:30:57.484Z,5.40
2022-12-02T22:33:30.024Z,5.54
2022-12-02T22:36:01.029Z,5.66
2022-12-02T22:38:29.162Z,5.65
2022-12-02T22:40:58.366Z,5.46
2022-12-02T22:43:26.359Z,5.52
2022-12-02T22:45:54.284Z,5.49
2022-12-02T22:48:22.208Z,5.39
2022-12-02T22:50:50.107Z,5.31
2022-12-02T22:53:17.967Z,5.24
2022-12-02T22:55:45.800Z,5.34
2022-12-02T22:58:15.118Z,5.36
2022-12-02T23:00:43.100Z,5.42
2022-12-02T23:03:10.963Z,5.37
2022-12-02T23:05:38.938Z,5.40
2022-12-02T23:08:07.076Z,5.42
2022-12-02T23:10:35.987Z,5.52
2022-12-02T23:13:05.546Z,5.60
2022-12-02T23:15:36.920Z,5.63
2022-12-02T23:18:06.394Z,5.58
2022-12-02T23:20:34.300Z,5.47
2022-12-02T23:23:02.372Z,5.35
2022-12-02T23:25:33.820Z,5.35
2022-12-02T23:28:03.040Z,5.36
2022-12-02T23:30:31.319Z,5.41
2022-12-02T23:33:00.880Z,5.36
2022-12-02T23:35:28.956Z,5.31
2022-12-02T23:37:56.927Z,5.38
2022-12-02T23:40:25.011Z,5.33
2022-12-02T23:42:53.640Z,5.27
2022-12-02T23:45:21.615Z,5.20
2022-12-02T23:47:49.483Z,5.21
2022-12-02T23:50:18.828Z,5.17
2022-12-02T23:52:46.819Z,4.94
2022-12-02T23:55:14.834Z,5.06
2022-12-02T23:57:42.921Z,4.87
